Time;durP1;ratioP1;P1;durP2;ratioP2;P2;SDS_P1;SDS_P2;PMS_P1;PMS_P2;Temp;Humidity;BMP_temperature;BMP_pressure;BME280_temperature;BME280_humidity;BME280_pressure;Samples;Min_cycle;Max_cycle;Signal;HPM_P1;HPM_P2
2023/12/05 00:02:23;;;;;;;26.70;16.85;;;;;;;1.78;100.00;99711.97;6339808;22;20086;-89
2023/12/05 00:04:56;;;;;;;26.10;16.15;;;;;;;1.88;100.00;99724.41;6307216;22;20039;-88
2023/12/05 00:07:28;;;;;;;25.27;17.52;;;;;;;2.00;100.00;99743.84;6306965;22;20014;-89
2023/12/05 00:10:19;;;;;;;23.90;16.73;;;;;;;2.06;100.00;99755.31;6306830;22;20007;-89
2023/12/05 00:12:54;;;;;;;26.40;17.40;;;;;;;1.86;100.00;99707.88;6306868;22;20372;-89
2023/12/05 00:15:29;;;;;;;27.35;17.92;;;;;;;1.70;100.00;99680.50;6307493;22;20010;-89
2023/12/05 00:17:58;;;;;;;28.30;17.45;;;;;;;1.73;100.00;99691.91;6306336;22;20007;-89
2023/12/05 00:20:36;;;;;;;;;;;;;;;;;;;;;
2023/12/05 00:23:15;;;;;;;24.73;16.75;;;;;;;1.74;100.00;99684.97;6307826;22;20071;-89
2023/12/05 00:25:49;;;;;;;24.80;16.75;;;;;;;2.02;100.00;99730.00;6308061;22;20011;-89
2023/12/05 00:28:32;;;;;;;25.88;17.00;;;;;;;1.75;100.00;99676.31;6306435;22;20011;-89
2023/12/05 00:30:58;;;;;;;25.55;17.17;;;;;;;1.82;100.00;99691.28;6306211;22;20030;-89
2023/12/05 00:33:33;;;;;;;27.02;17.48;;;;;;;2.21;100.00;99756.59;6308359;22;20385;-89
2023/12/05 00:36:08;;;;;;;24.73;16.33;;;;;;;1.81;100.00;99679.09;6305679;22;20069;-89
2023/12/05 00:38:37;;;;;;;26.85;16.27;;;;;;;2.00;100.00;99715.19;6306053;22;20011;-89
2023/12/05 00:41:07;;;;;;;27.65;17.65;;;;;;;1.90;100.00;99694.97;6332489;22;19999;-89
2023/12/05 00:43:37;;;;;;;26.45;17.00;;;;;;;1.82;100.00;99675.66;6308329;22;20098;-89
2023/12/05 00:46:33;;;;;;;26.30;17.63;;;;;;;2.02;100.00;99697.03;6307958;22;20005;-89
2023/12/05 00:49:03;;;;;;;29.08;17.23;;;;;;;2.37;100.00;99763.09;6307584;22;20372;-88
2023/12/05 00:51:42;;;;;;;26.30;17.27;;;;;;;1.91;100.00;99672.41;6308620;22;20008;-88
2023/12/05 00:54:18;;;;;;;;;;;;;;;;;;;;;
2023/12/05 00:56:46;;;;;;;25.17;17.10;;;;;;;2.20;100.00;99728.75;6307707;22;20082;-88
2023/12/05 00:59:21;;;;;;;25.98;17.58;;;;;;;1.91;100.00;99673.28;6307473;22;20034;-88
2023/12/05 01:01:49;;;;;;;26.90;17.13;;;;;;;1.95;100.00;99674.25;6308066;22;20338;-88
2023/12/05 01:04:19;;;;;;;26.60;17.75;;;;;;;1.93;100.00;99676.81;6324356;22;20412;-88
2023/12/05 01:07:02;;;;;;;24.40;17.23;;;;;;;2.17;100.00;99713.03;6312722;22;20089;-88
2023/12/05 01:09:33;;;;;;;26.35;16.58;;;;;;;1.87;100.00;99658.41;6339199;22;20010;-88
2023/12/05 01:12:02;;;;;;;26.52;17.30;;;;;;;1.99;100.00;99669.16;6339474;22;20134;-88
2023/12/05 01:14:39;;;;;;;27.60;18.35;;;;;;;2.48;100.00;99753.84;6310986;22;20007;-88
2023/12/05 01:17:09;;;;;;;28.55;17.98;;;;;;;2.00;100.00;99664.81;6311816;22;20018;-88
2023/12/05 01:19:45;;;;;;;27.00;18.10;;;;;;;2.00;100.00;99657.88;6339077;22;20029;-88
2023/12/05 01:22:13;;;;;;;27.17;17.83;;;;;;;2.21;100.00;99694.03;6314244;22;20006;-88
2023/12/05 01:24:52;;;;;;;;;;;;;;;;;;;;;
2023/12/05 01:27:25;;;;;;;27.48;18.30;;;;;;;2.21;100.00;99687.94;6341502;22;20452;-88
2023/12/05 01:29:53;;;;;;;30.60;18.02;;;;;;;2.21;100.00;99681.00;6341200;22;20002;-88
2023/12/05 01:32:34;;;;;;;25.67;17.70;;;;;;;2.35;100.00;99696.97;6339665;22;20351;-88
2023/12/05 01:40:57;;;;;;;27.25;17.35;;;;;;;2.13;100.00;99660.81;6341995;22;20010;-88
2023/12/05 01:43:24;;;;;;;30.38;19.70;;;;;;;2.43;100.00;99707.59;6313523;22;20456;-88
2023/12/05 01:45:57;;;;;;;28.45;18.35;;;;;;;2.58;100.00;99735.81;6341270;22;20007;-88
2023/12/05 01:48:34;;;;;;;26.92;18.00;;;;;;;2.61;100.00;99744.59;6314953;22;20441;-88
2023/12/05 01:51:04;;;;;;;27.27;17.63;;;;;;;2.03;100.00;99632.78;6313448;22;20003;-88
2023/12/05 01:53:34;;;;;;;27.92;18.27;;;;;;;2.13;100.00;99658.19;6341184;22;20010;-88
2023/12/05 01:56:04;;;;;;;26.45;18.17;;;;;;;2.15;100.00;99662.63;6313812;22;20010;-88
2023/12/05 01:58:43;;;;;;;25.85;18.05;;;;;;;2.65;100.00;99754.22;6340681;22;20417;-88
2023/12/05 02:01:20;;;;;;;;;;;;;;;;;;;;;
2023/12/05 02:03:57;;;;;;;;;;;;;;;;;;;;;
2023/12/05 02:06:26;;;;;;;26.92;18.23;;;;;;;2.44;100.00;99711.97;6316873;22;20086;-87
2023/12/05 02:08:55;;;;;;;27.35;17.58;;;;;;;2.40;100.00;99707.53;6341658;22;19998;-87
2023/12/05 02:11:28;;;;;;;28.08;18.55;;;;;;;2.49;100.00;99724.31;6312998;22;20017;-87
2023/12/05 02:14:01;;;;;;;28.67;18.13;;;;;;;2.55;100.00;99726.16;6290077;22;20014;-87
2023/12/05 02:16:49;;;;;;;;;;;;;;;;;;;;;
2023/12/05 02:19:41;;;;;;;27.38;18.65;;;;;;;2.74;100.00;99759.69;6340057;22;20066;-88
2023/12/05 02:22:30;;;;;;;29.40;18.17;;;;;;;2.53;100.00;99719.13;6313400;22;20007;-88
2023/12/05 02:25:25;;;;;;;28.58;18.58;;;;;;;2.25;100.00;99667.22;6286197;22;20011;-87
2023/12/05 02:28:00;;;;;;;27.27;18.20;;;;;;;2.25;100.00;99669.81;6338776;22;20003;-87
2023/12/05 02:30:28;;;;;;;29.08;18.80;;;;;;;2.33;100.00;99675.22;6313016;22;20302;-87
2023/12/05 02:32:53;;;;;;;26.90;18.13;;;;;;;2.29;100.00;99665.56;6312506;22;20045;-87
2023/12/05 02:35:24;;;;;;;30.23;19.00;;;;;;;2.57;100.00;99716.66;6312553;22;20006;-87
2023/12/05 02:38:01;;;;;;;28.23;18.58;;;;;;;2.61;100.00;99726.34;6340857;22;20041;-87
2023/12/05 02:40:46;;;;;;;28.38;18.08;;;;;;;2.64;100.00;99717.69;6339224;22;20085;-87
2023/12/05 02:43:29;;;;;;;29.25;18.33;;;;;;;2.51;100.00;99698.25;6339881;22;20014;-88
2023/12/05 02:45:56;;;;;;;28.48;18.92;;;;;;;2.33;100.00;99658.72;6312953;22;20033;-87
2023/12/05 02:48:27;;;;;;;28.08;18.75;;;;;;;2.33;100.00;99654.38;6312420;22;20006;-88
2023/12/05 02:50:56;;;;;;;27.33;18.00;;;;;;;2.67;100.00;99709.94;6313013;22;20078;-87
2023/12/05 02:53:27;;;;;;;28.63;17.83;;;;;;;2.38;100.00;99665.78;6339618;22;20002;-88
2023/12/05 02:56:08;;;;;;;29.35;18.98;;;;;;;2.58;100.00;99691.47;6288058;22;20030;-88
2023/12/05 02:58:38;;;;;;;30.23;19.35;;;;;;;2.43;100.00;99665.91;6312072;22;20002;-87
2023/12/05 03:01:09;;;;;;;28.98;19.13;;;;;;;2.43;100.00;99656.34;6312727;22;20007;-88
2023/12/05 03:03:56;;;;;;;26.83;18.08;;;;;;;2.92;100.00;99743.59;6312346;22;20022;-89
2023/12/05 03:06:46;;;;;;;28.05;18.13;;;;;;;2.42;100.00;99654.59;6313011;22;20367;-88
2023/12/05 03:09:17;;;;;;;26.13;18.25;;;;;;;2.48;100.00;99659.06;6292522;22;20007;-89
2023/12/05 03:12:10;;;;;;;;;;;;;;;;;;;;;
2023/12/05 03:15:00;;;;;;;;;;;;;;;;;;;;;
2023/12/05 03:17:31;;;;;;;29.80;18.67;;;;;;;2.45;100.00;99646.84;6340920;22;20090;-89
2023/12/05 03:19:59;;;;;;;28.50;18.77;;;;;;;2.55;100.00;99647.94;6340641;22;20030;-90
2023/12/05 03:22:56;;;;;;;30.30;18.95;;;;;;;2.66;100.00;99669.06;6313076;22;20305;-89
2023/12/05 03:25:40;;;;;;;30.08;18.33;;;;;;;2.79;100.00;99691.09;6314952;22;20134;-89
2023/12/05 03:28:19;;;;;;;28.17;19.05;;;;;;;2.58;100.00;99649.75;6312104;22;20060;-89
2023/12/05 03:30:54;;;;;;;29.17;19.13;;;;;;;2.55;100.00;99649.66;6313093;22;20014;-89
2023/12/05 03:33:32;;;;;;;28.85;18.90;;;;;;;2.54;100.00;99646.19;6340331;22;20438;-89
2023/12/05 03:36:07;;;;;;;28.58;18.55;;;;;;;2.83;100.00;99687.72;6314196;22;20006;-89
2023/12/05 03:38:46;;;;;;;;;;;;;;;;;;;;;
2023/12/05 03:41:14;;;;;;;28.63;19.30;;;;;;;2.59;100.00;99647.16;6340128;22;20087;-89
2023/12/05 03:44:13;;;;;;;29.58;19.73;;;;;;;2.57;100.00;99637.53;6339128;22;20014;-89
2023/12/05 03:46:50;;;;;;;30.58;20.20;;;;;;;2.87;100.00;99697.34;6308478;22;20072;-89
2023/12/05 03:49:28;;;;;;;30.25;19.80;;;;;;;3.06;100.00;99733.47;6340448;22;20007;-89
2023/12/05 03:52:01;;;;;;;31.95;20.25;;;;;;;2.61;100.00;99650.72;6289270;22;20037;-89
2023/12/05 03:54:26;;;;;;;33.42;20.42;;;;;;;2.87;100.00;99703.47;6286328;22;20013;-89
2023/12/05 03:56:57;;;;;;;29.70;19.83;;;;;;;3.10;100.00;99730.09;6311385;22;20003;-89
2023/12/05 03:59:26;;;;;;;28.33;18.10;;;;;;;2.64;100.00;99653.38;6287140;22;20341;-88
2023/12/05 04:01:51;;;;;;;28.70;19.38;;;;;;;2.84;100.00;99695.56;6339144;22;20002;-89
2023/12/05 04:07:57;;;;;;;28.50;18.90;;;;;;;3.15;100.00;99745.84;6317383;22;20091;-89
2023/12/05 04:10:26;;;;;;;28.67;19.25;;;;;;;2.88;100.00;99694.78;6312386;22;20325;-88
2023/12/05 04:12:58;;;;;;;30.33;19.73;;;;;;;2.98;100.00;99721.97;6311285;22;20002;-88
2023/12/05 04:15:36;;;;;;;;;;;;;;;;;;;;;
2023/12/05 04:18:07;;;;;;;30.02;19.65;;;;;;;2.69;100.00;99669.13;6314802;22;20085;-89
2023/12/05 04:20:37;;;;;;;30.10;20.52;;;;;;;2.93;100.00;99706.22;6339437;22;19998;-89
2023/12/05 04:23:21;;;;;;;28.80;19.15;;;;;;;2.76;100.00;99694.50;6339772;22;20010;-89
2023/12/05 04:26:07;;;;;;;27.38;17.55;;;;;;;3.24;100.00;99769.53;6311571;22;20041;-89
2023/12/05 04:28:37;;;;;;;29.13;19.15;;;;;;;2.99;100.00;99732.44;6339429;22;20057;-88
2023/12/05 04:31:16;;;;;;;30.08;19.55;;;;;;;3.05;100.00;99730.84;6312293;22;20011;-88
2023/12/05 04:33:45;;;;;;;30.17;19.58;;;;;;;2.82;100.00;99691.16;6314207;22;20439;-88
2023/12/05 04:36:20;;;;;;;30.65;20.20;;;;;;;3.24;100.00;99759.09;6339292;22;20003;-88
2023/12/05 04:38:50;;;;;;;30.65;20.48;;;;;;;2.82;100.00;99697.25;6312237;22;20018;-88
2023/12/05 04:41:20;;;;;;;31.80;20.92;;;;;;;2.85;100.00;99701.66;6286555;22;20030;-89
2023/12/05 04:43:51;;;;;;;30.48;19.92;;;;;;;2.82;100.00;99683.31;6311946;22;20061;-88
2023/12/05 04:46:42;;;;;;;31.50;20.98;;;;;;;2.73;100.00;99668.34;6338912;22;20439;-88
2023/12/05 04:49:19;;;;;;;;;;;;;;;;;;;;;
2023/12/05 04:51:47;;;;;;;33.50;19.73;;;;;;;3.14;100.00;99739.75;6340230;22;20081;-88
2023/12/05 04:54:19;;;;;;;31.48;20.45;;;;;;;3.18;100.00;99754.63;6312666;22;20014;-88
2023/12/05 04:56:55;;;;;;;31.10;20.05;;;;;;;3.03;100.00;99727.28;6313155;22;20014;-88
2023/12/05 04:59:20;;;;;;;32.28;20.25;;;;;;;2.88;100.00;99702.63;6287602;22;20023;-88
2023/12/05 05:01:51;;;;;;;29.23;19.38;;;;;;;3.37;100.00;99779.41;6341246;22;20077;-87
2023/12/05 05:04:28;;;;;;;35.67;21.20;;;;;;;3.13;100.00;99745.81;6313013;22;20400;-89
2023/12/05 05:07:03;;;;;;;30.70;20.27;;;;;;;2.94;100.00;99707.97;6311361;22;20018;-89
2023/12/05 05:09:28;;;;;;;31.98;20.35;;;;;;;2.93;100.00;99708.81;6311450;22;20097;-89
2023/12/05 05:11:57;;;;;;;29.38;20.33;;;;;;;3.09;100.00;99736.16;6337522;22;20104;-89
2023/12/05 05:14:27;;;;;;;30.90;19.63;;;;;;;3.40;100.00;99787.31;6338696;22;20007;-89
2023/12/05 05:17:07;;;;;;;30.35;20.10;;;;;;;3.03;100.00;99728.19;6339390;22;20002;-89
2023/12/05 05:19:32;;;;;;;29.98;19.95;;;;;;;2.95;100.00;99714.06;6287050;22;20517;-89
2023/12/05 05:22:07;;;;;;;30.95;20.17;;;;;;;3.08;100.00;99734.38;6339015;22;20081;-89
2023/12/05 05:24:32;;;;;;;30.02;19.58;;;;;;;2.99;100.00;99723.72;6339357;22;20013;-89
2023/12/05 05:27:26;;;;;;;30.75;19.85;;;;;;;3.43;100.00;99797.84;6311041;22;20031;-89
2023/12/05 05:30:01;;;;;;;31.35;19.30;;;;;;;3.33;100.00;99782.81;6305185;22;20014;-89
2023/12/05 05:32:31;;;;;;;30.95;19.23;;;;;;;3.11;100.00;99737.06;6339352;22;20007;-89
2023/12/05 05:35:06;;;;;;;31.83;19.85;;;;;;;3.11;100.00;99747.50;6311913;22;20433;-89
2023/12/05 05:37:36;;;;;;;32.75;19.75;;;;;;;3.26;100.00;99768.75;6338974;22;20002;-89
2023/12/05 05:40:26;;;;;;;31.40;20.13;;;;;;;3.11;100.00;99744.88;6286226;22;20089;-89
2023/12/05 05:43:05;;;;;;;30.40;19.25;;;;;;;2.99;100.00;99724.59;6286691;22;20045;-89
2023/12/05 05:45:33;;;;;;;31.80;20.13;;;;;;;3.13;100.00;99740.59;6288106;22;20425;-89
2023/12/05 05:48:08;;;;;;;31.75;20.17;;;;;;;3.05;100.00;99730.84;6338902;22;20002;-89
2023/12/05 05:50:33;;;;;;;42.78;20.10;;;;;;;3.14;100.00;99749.31;6338999;22;20006;-89
2023/12/05 05:53:18;;;;;;;32.08;20.10;;;;;;;3.31;100.00;99775.81;6339110;22;20128;-89
2023/12/05 05:55:46;;;;;;;32.60;20.83;;;;;;;3.12;100.00;99749.25;6289527;22;20326;-89
2023/12/05 05:58:20;;;;;;;33.03;19.50;;;;;;;3.39;100.00;99797.75;6310955;22;20003;-89
2023/12/05 06:00:49;;;;;;;29.00;19.35;;;;;;;3.07;100.00;99734.34;6337547;22;20007;-89
2023/12/05 06:03:19;;;;;;;31.63;20.08;;;;;;;3.42;100.00;99796.06;6338594;22;20003;-89
2023/12/05 06:05:48;;;;;;;31.45;19.95;;;;;;;3.20;100.00;99759.88;6261153;22;1189536;-90
2023/12/05 06:08:18;;;;;;;28.85;18.95;;;;;;;3.57;100.00;99816.44;6340355;22;20067;-90
2023/12/05 06:10:51;;;;;;;29.05;19.13;;;;;;;3.38;100.00;99781.16;6313926;22;20015;-90
2023/12/05 06:13:17;;;;;;;30.23;19.90;;;;;;;3.13;100.00;99737.13;6313847;22;20011;-90
2023/12/05 06:15:42;;;;;;;31.38;20.90;;;;;;;3.16;100.00;99747.59;6313077;22;20084;-90
2023/12/05 06:18:25;;;;;;;33.85;21.58;;;;;;;3.58;100.00;99820.78;6339895;22;19999;-90
2023/12/05 06:21:00;;;;;;;;;;;;;;;3.63;100.00;99818.28;6291232;22;20007;-90
2023/12/05 06:23:30;;;;;;;40.22;24.35;;;;;;;3.16;100.00;99742.38;6340059;22;19913;-90
2023/12/05 06:25:56;;;;;;;42.85;25.45;;;;;;;3.18;100.00;99745.94;6313129;22;20003;-90
2023/12/05 06:28:26;;;;;;;40.20;23.90;;;;;;;3.08;100.00;99739.59;6312486;22;20007;-89
2023/12/05 06:30:52;;;;;;;38.10;22.23;;;;;;;3.12;100.00;99744.03;6312928;22;20010;-89
2023/12/05 06:33:20;;;;;;;37.72;21.55;;;;;;;3.19;100.00;99764.22;6340153;22;19999;-90
2023/12/05 06:35:58;;;;;;;;;;;;;;;;;;;;;
2023/12/05 06:38:36;;;;;;;34.90;21.75;;;;;;;3.19;100.00;99765.97;6315628;22;20070;-90
2023/12/05 06:41:04;;;;;;;39.55;22.20;;;;;;;3.24;100.00;99774.75;6313004;22;20011;-90
2023/12/05 06:43:32;;;;;;;33.80;20.98;;;;;;;3.13;100.00;99765.84;6339740;22;20003;-90
2023/12/05 06:46:00;;;;;;;34.15;20.88;;;;;;;3.15;100.00;99771.94;6313456;22;20086;-90
2023/12/05 06:48:25;;;;;;;32.15;19.17;;;;;;;3.24;100.00;99796.53;6339807;22;20318;-89
2023/12/05 06:50:51;;;;;;;33.03;20.38;;;;;;;3.29;100.00;99808.81;6312469;22;20014;-89
2023/12/05 06:53:19;;;;;;;31.98;19.45;;;;;;;3.58;100.00;99861.72;6312118;22;20006;-89
2023/12/05 06:55:49;;;;;;;30.65;20.10;;;;;;;3.08;100.00;99770.03;6312540;22;20089;-89
2023/12/05 06:58:15;;;;;;;29.60;18.67;;;;;;;3.28;100.00;99818.38;6312132;22;20007;-89
2023/12/05 07:00:47;;;;;;;31.45;19.77;;;;;;;3.32;100.00;99822.81;6339645;22;20011;-89
2023/12/05 07:03:15;;;;;;;35.13;20.70;;;;;;;3.44;100.00;99840.50;6313120;22;19999;-89
2023/12/05 07:06:09;;;;;;;;;;;;;;;;;;;;;
2023/12/05 07:08:39;;;;;;;32.65;19.55;;;;;;;3.43;100.00;99854.41;6340706;22;20090;-90
2023/12/05 07:11:10;;;;;;;34.42;20.00;;;;;;;3.13;100.00;99810.19;6313428;22;20003;-89
2023/12/05 07:13:36;;;;;;;30.38;18.92;;;;;;;3.12;100.00;99822.34;6340048;22;20009;-89
2023/12/05 07:16:18;;;;;;;34.17;19.67;;;;;;;3.29;100.00;99843.63;6312229;22;19998;-88
2023/12/05 07:18:44;;;;;;;30.63;18.35;;;;;;;3.58;100.00;99893.06;6312477;22;20181;-89
2023/12/05 07:21:11;;;;;;;32.92;19.25;;;;;;;3.23;100.00;99838.28;6311927;22;20428;-89
2023/12/05 07:23:39;;;;;;;32.92;19.17;;;;;;;3.14;100.00;99830.22;6339856;22;20480;-88
2023/12/05 07:26:07;;;;;;;32.92;19.55;;;;;;;3.54;100.00;99905.16;6312077;22;20345;-88
2023/12/05 07:28:45;;;;;;;;;;;;;;;;;;;;;
2023/12/05 07:31:13;;;;;;;33.28;19.90;;;;;;;3.06;100.00;99830.03;6340452;22;20078;-89
2023/12/05 07:33:41;;;;;;;31.88;19.40;;;;;;;3.25;100.00;99863.59;6339772;22;20070;-89
2023/12/05 07:36:19;;;;;;;34.00;19.67;;;;;;;3.14;100.00;99845.88;6339697;22;20443;-89
2023/12/05 07:38:47;;;;;;;32.58;20.33;;;;;;;3.29;100.00;99868.84;6340109;22;20014;-88
2023/12/05 07:41:20;;;;;;;34.33;19.98;;;;;;;3.11;100.00;99846.69;6312560;22;20055;-87
2023/12/05 07:43:49;;;;;;;;;;;;;;;3.55;100.00;99922.59;6315452;22;20007;-89
2023/12/05 07:46:18;;;;;;;38.05;20.30;;;;;;;3.05;100.00;99849.16;6339763;22;19914;-89
2023/12/05 07:48:46;;;;;;;31.83;18.92;;;;;;;3.08;100.00;99866.59;6312223;22;20011;-89
2023/12/05 07:51:19;;;;;;;32.95;19.27;;;;;;;3.21;100.00;99890.47;6288420;22;20068;-88
2023/12/05 07:54:00;;;;;;;34.80;20.67;;;;;;;3.21;100.00;99895.69;6312231;22;20064;-88
2023/12/05 07:59:24;;;;;;;31.25;18.75;;;;;;;3.03;100.00;99871.69;6340199;22;20176;-88
2023/12/05 08:01:54;;;;;;;33.50;19.73;;;;;;;3.33;100.00;99935.97;6312468;22;19998;-88
2023/12/05 08:04:22;;;;;;;30.98;18.90;;;;;;;3.08;100.00;99885.75;6312505;22;20056;-88
2023/12/05 08:07:20;;;;;;;32.38;19.08;;;;;;;3.11;100.00;99891.06;6311306;22;20063;-89
2023/12/05 08:09:52;;;;;;;31.90;19.48;;;;;;;3.09;100.00;99892.75;6340146;22;20015;-89
2023/12/05 08:12:35;;;;;;;32.25;19.10;;;;;;;3.16;100.00;99905.09;6338236;22;20006;-89
2023/12/05 08:15:04;;;;;;;35.17;20.60;;;;;;;3.25;100.00;99928.84;6311889;22;20053;-89
2023/12/05 08:17:36;;;;;;;35.05;20.20;;;;;;;3.15;100.00;99921.59;6307348;22;20003;-89
2023/12/05 08:20:05;;;;;;;33.67;19.77;;;;;;;3.13;100.00;99923.31;6339484;22;20006;-88
2023/12/05 08:22:33;;;;;;;34.35;19.38;;;;;;;3.21;100.00;99939.16;6310801;22;20003;-88
2023/12/05 08:25:02;;;;;;;34.30;19.23;;;;;;;3.19;100.00;99940.84;6339040;22;20413;-88
2023/12/05 08:27:33;;;;;;;35.72;18.95;;;;;;;3.07;100.00;99919.66;6337211;22;20002;-88
2023/12/05 08:29:59;;;;;;;33.08;18.48;;;;;;;3.03;100.00;99920.41;6339564;22;20006;-88
2023/12/05 08:32:27;;;;;;;33.88;19.10;;;;;;;3.29;100.00;99968.06;6339028;22;20017;-88
2023/12/05 08:35:00;;;;;;;30.42;18.05;;;;;;;3.28;100.00;99974.13;6338586;22;20007;-88
2023/12/05 08:37:31;;;;;;;36.78;20.33;;;;;;;2.96;100.00;99919.38;6265144;22;20027;-88
2023/12/05 08:39:59;;;;;;;34.65;19.70;;;;;;;3.18;100.00;99971.28;6287932;22;20007;-88
2023/12/05 08:42:42;;;;;;;;;;;;;;;;;;;;;
2023/12/05 08:45:22;;;;;;;33.67;19.10;;;;;;;2.92;100.00;99935.78;6339333;22;20074;-88
2023/12/05 08:47:55;;;;;;;34.63;19.80;;;;;;;3.11;100.00;99964.13;6339617;22;20011;-88
2023/12/05 08:50:29;;;;;;;31.70;17.80;;;;;;;3.31;100.00;99998.59;6339211;22;19999;-88
2023/12/05 08:53:08;;;;;;;;;;;;;;;;;;;;;
2023/12/05 08:55:41;;;;;;;35.67;20.30;;;;;;;3.29;100.00;100009.84;6313111;22;20164;-88
2023/12/05 08:58:11;;;;;;;38.28;20.20;;;;;;;3.15;100.00;99989.47;6312415;22;20023;-89
2023/12/05 09:00:41;;;;;;;33.38;18.58;;;;;;;2.89;100.00;99947.03;6311005;22;20014;-88
2023/12/05 09:03:26;;;;;;;34.53;20.10;;;;;;;2.96;100.00;99964.63;6341349;22;20059;-88
2023/12/05 09:06:01;;;;;;;36.20;20.45;;;;;;;2.91;100.00;99949.66;6317411;22;20022;-87
2023/12/05 09:08:59;;;;;;;;;;;;;;;;;;;;;
2023/12/05 09:11:33;;;;;;;33.13;19.25;;;;;;;3.07;100.00;99985.78;6313860;22;20087;-89
2023/12/05 09:14:05;;;;;;;35.83;19.20;;;;;;;2.98;100.00;99975.97;6337852;22;20018;-88
2023/12/05 09:16:54;;;;;;;34.67;19.58;;;;;;;2.84;100.00;99950.34;6263400;22;20078;-89
2023/12/05 09:19:54;;;;;;;;;;;;;;;;;;;;;
2023/12/05 09:22:49;;;;;;;35.50;18.60;;;;;;;3.00;100.00;99976.91;6313907;22;20074;-89
2023/12/05 09:25:32;;;;;;;;;;;;;;;;;;;;;
2023/12/05 09:28:00;;;;;;;34.28;18.23;;;;;;;2.98;100.00;99965.53;6338110;22;20081;-87
2023/12/05 09:30:38;;;;;;;36.58;18.98;;;;;;;3.00;100.00;99976.03;6311485;22;20412;-87
2023/12/05 09:33:05;;;;;;;34.25;18.20;;;;;;;3.26;100.00;100021.97;6311141;22;20446;-88
2023/12/05 09:35:32;;;;;;;34.97;18.70;;;;;;;3.54;100.00;100064.47;6284905;22;20422;-86
2023/12/05 09:37:58;;;;;;;31.67;18.70;;;;;;;3.42;100.00;100035.44;6285083;22;20014;-87
2023/12/05 09:41:05;;;;;;;33.53;18.77;;;;;;;3.17;100.00;99984.28;6312099;22;20007;-87
2023/12/05 09:43:36;;;;;;;34.13;17.83;;;;;;;3.23;100.00;100000.13;6312495;22;20064;-87
2023/12/05 09:46:31;;;;;;;34.55;18.50;;;;;;;3.29;100.00;100021.16;6340747;22;20003;-87
2023/12/05 09:49:06;;;;;;;36.33;18.67;;;;;;;3.65;100.00;100080.44;6312949;22;20007;-87
2023/12/05 09:51:37;;;;;;;30.75;18.02;;;;;;;3.22;100.00;100001.84;6312600;22;20010;-87
2023/12/05 09:54:12;;;;;;;37.30;19.48;;;;;;;3.35;100.00;100020.47;6339432;22;20014;-87
2023/12/05 09:56:44;;;;;;;35.63;19.60;;;;;;;3.63;100.00;100064.72;6340319;22;20309;-88
2023/12/05 09:59:16;;;;;;;38.60;20.40;;;;;;;3.62;100.00;100060.34;6340554;22;20002;-85
2023/12/05 10:01:44;;;;;;;41.10;20.25;;;;;;;3.32;100.00;100002.97;6313010;22;20295;-86
2023/12/05 10:04:16;;;;;;;35.40;19.30;;;;;;;3.57;100.00;100051.50;6339930;22;20140;-85
2023/12/05 10:06:41;;;;;;;42.03;20.42;;;;;;;3.42;100.00;100014.53;6340020;22;19999;-84
2023/12/05 10:09:13;;;;;;;34.90;20.00;;;;;;;3.40;100.00;100021.47;6312408;22;20003;-84
2023/12/05 10:11:44;;;;;;;34.58;20.35;;;;;;;3.57;100.00;100050.63;6312984;22;20085;-84
2023/12/05 10:14:13;;;;;;;35.83;19.42;;;;;;;3.44;100.00;100031.16;6340463;22;20422;-84
2023/12/05 10:16:49;;;;;;;;;;;;;;;;;;;;;
2023/12/05 10:19:16;;;;;;;33.45;19.25;;;;;;;3.44;100.00;100052.03;6340808;22;20078;-84
2023/12/05 10:21:44;;;;;;;38.28;21.00;;;;;;;3.42;100.00;100040.66;6339799;22;20488;-84
2023/12/05 10:24:13;;;;;;;39.25;20.63;;;;;;;3.67;100.00;100094.41;6340388;22;20041;-84
2023/12/05 10:26:49;;;;;;;37.30;18.92;;;;;;;3.65;100.00;100081.34;6340508;22;20007;-84
2023/12/05 10:29:16;;;;;;;38.75;19.85;;;;;;;3.75;100.00;100093.78;6340835;22;20014;-84
2023/12/05 10:31:44;;;;;;;37.35;19.05;;;;;;;3.46;100.00;100046.00;6312600;22;20014;-84
2023/12/05 10:34:12;;;;;;;36.63;19.00;;;;;;;3.48;100.00;100046.06;6339670;22;20010;-84
2023/12/05 10:36:38;;;;;;;35.95;18.80;;;;;;;3.63;100.00;100063.84;6339511;22;20011;-84
2023/12/05 10:39:09;;;;;;;35.22;18.73;;;;;;;3.98;100.00;100125.75;6340615;22;20067;-84
2023/12/05 10:41:36;;;;;;;30.40;18.05;;;;;;;3.54;100.00;100053.16;6340070;22;20412;-84
2023/12/05 10:44:08;;;;;;;31.80;18.05;;;;;;;3.64;100.00;100074.34;6339983;22;20038;-84
2023/12/05 10:46:37;;;;;;;37.05;17.98;;;;;;;3.48;100.00;100053.88;6312444;22;19999;-84
2023/12/05 10:49:06;;;;;;;28.17;16.20;;;;;;;3.54;100.00;100061.88;6339940;22;20484;-84
2023/12/05 10:51:33;;;;;;;28.08;15.90;;;;;;;3.50;100.00;100060.91;6339653;22;20002;-84
2023/12/05 10:53:59;;;;;;;24.95;15.07;;;;;;;3.85;100.00;100115.78;6339542;22;20082;-84
2023/12/05 10:56:31;;;;;;;29.95;15.27;;;;;;;3.87;100.00;100116.75;6286185;22;20034;-85
2023/12/05 10:59:08;;;;;;;27.92;15.07;;;;;;;3.80;100.00;100103.47;6314239;22;20010;-84
2023/12/05 11:01:44;;;;;;;23.60;14.27;;;;;;;3.82;100.00;100112.25;6339959;22;20006;-84
2023/12/05 11:04:10;;;;;;;27.58;15.88;;;;;;;3.78;100.00;100108.66;6341059;22;20015;-84
2023/12/05 11:06:35;;;;;;;28.45;15.10;;;;;;;3.74;100.00;100098.97;6340564;22;20013;-84
2023/12/05 11:09:01;;;;;;;25.13;14.77;;;;;;;3.62;100.00;100077.75;6312035;22;20088;-84
2023/12/05 11:11:27;;;;;;;29.95;16.20;;;;;;;3.81;100.00;100120.91;6339240;22;20387;-84
2023/12/05 11:13:53;;;;;;;28.13;15.55;;;;;;;3.90;100.00;100136.84;6312074;22;20321;-84
2023/12/05 11:16:30;;;;;;;22.58;14.38;;;;;;;3.61;100.00;100096.88;6339621;22;20115;-84
2023/12/05 11:19:17;;;;;;;21.23;13.32;;;;;;;3.82;100.00;100125.31;6340018;22;20010;-84
2023/12/05 11:22:08;;;;;;;19.80;11.95;;;;;;;3.56;100.00;100094.16;6312377;22;20324;-84
2023/12/05 11:24:55;;;;;;;21.30;12.20;;;;;;;4.04;100.00;100165.94;6312948;22;20011;-85
2023/12/05 11:27:43;;;;;;;18.27;11.70;;;;;;;4.04;100.00;100171.19;6339423;22;20052;-84
2023/12/05 11:30:15;;;;;;;20.70;12.13;;;;;;;4.02;100.00;100171.13;6339872;22;20003;-84
2023/12/05 11:32:54;;;;;;;20.70;11.80;;;;;;;3.95;100.00;100164.00;6311958;22;20003;-85
2023/12/05 11:35:47;;;;;;;21.60;13.25;;;;;;;3.99;100.00;100182.41;6339206;22;20317;-84
2023/12/05 11:38:15;;;;;;;20.90;12.50;;;;;;;3.85;100.00;100161.94;6311450;22;19999;-84
2023/12/05 11:40:41;;;;;;;21.42;13.35;;;;;;;3.93;100.00;100173.50;6339025;22;20021;-85
2023/12/05 11:43:11;;;;;;;20.85;12.90;;;;;;;3.97;100.00;100185.81;6261560;22;20457;-85
2023/12/05 11:45:37;;;;;;;20.70;13.10;;;;;;;3.96;100.00;100194.50;6339413;22;20085;-85
2023/12/05 11:48:04;;;;;;;22.40;13.13;;;;;;;3.93;100.00;100194.41;6339427;22;20329;-84
2023/12/05 11:50:49;;;;;;;21.05;13.05;;;;;;;3.85;100.00;100178.50;6311492;22;20060;-85
2023/12/05 11:53:17;;;;;;;19.30;11.52;;;;;;;3.82;100.00;100177.56;6311616;22;20013;-85
2023/12/05 11:55:46;;;;;;;17.92;11.13;;;;;;;3.83;100.00;100190.66;6341074;22;20002;-84
2023/12/05 11:58:29;;;;;;;17.33;11.27;;;;;;;3.94;100.00;100202.31;6312254;22;20026;-85
2023/12/05 12:01:09;;;;;;;18.05;11.05;;;;;;;3.92;100.00;100205.72;6286355;22;19999;-85
2023/12/05 12:03:52;;;;;;;18.00;11.82;;;;;;;3.86;100.00;100209.06;6311357;22;20448;-85
2023/12/05 12:06:20;;;;;;;21.30;12.52;;;;;;;3.76;100.00;100212.25;6280729;22;20019;-85
2023/12/05 12:08:52;;;;;;;27.02;13.98;;;;;;;3.72;100.00;100210.38;6307985;22;20014;-85
2023/12/05 12:11:20;;;;;;;21.90;12.38;;;;;;;3.40;100.00;100163.34;6308665;22;20014;-85
2023/12/05 12:13:45;;;;;;;27.45;13.90;;;;;;;3.53;100.00;100193.31;6307119;22;20461;-85
2023/12/05 12:16:16;;;;;;;27.70;15.23;;;;;;;3.67;100.00;100222.44;6307904;22;20011;-85
2023/12/05 12:18:42;;;;;;;23.88;14.27;;;;;;;3.56;100.00;100205.59;6307639;22;20003;-85
2023/12/05 12:21:10;;;;;;;25.83;14.57;;;;;;;3.68;100.00;100224.19;6255192;22;20010;-85
2023/12/05 12:23:35;;;;;;;28.00;16.33;;;;;;;3.62;100.00;100219.69;6307775;22;20022;-85
2023/12/05 12:26:02;;;;;;;27.52;15.57;;;;;;;3.58;100.00;100222.19;6307807;22;20050;-85